sensor_id;sensor_type;location;lat;lon;timestamp;pressure;altitude;pressure_sealevel;temperature;humidity
77881;BME280;67077;50.298;18.996;2023-07-22T00:01:57;97463.80;;;17.03;85.88
77881;BME280;67077;50.298;18.996;2023-07-22T00:04:26;97466.19;;;17.01;85.99
77881;BME280;67077;50.298;18.996;2023-07-22T00:06:54;97467.83;;;17.05;86.00
77881;BME280;67077;50.298;18.996;2023-07-22T00:09:22;97465.07;;;17.11;85.94
77881;BME280;67077;50.298;18.996;2023-07-22T00:11:50;97468.73;;;17.15;85.73
77881;BME280;67077;50.298;18.996;2023-07-22T00:14:18;97465.17;;;17.19;85.74
77881;BME280;67077;50.298;18.996;2023-07-22T00:16:45;97460.09;;;17.40;85.81
77881;BME280;67077;50.298;18.996;2023-07-22T00:19:13;97462.17;;;17.52;85.14
77881;BME280;67077;50.298;18.996;2023-07-22T00:21:41;97468.86;;;17.50;84.71
77881;BME280;67077;50.298;18.996;2023-07-22T00:24:09;97470.61;;;17.44;84.57
77881;BME280;67077;50.298;18.996;2023-07-22T00:26:38;97467.04;;;17.38;84.79
77881;BME280;67077;50.298;18.996;2023-07-22T00:29:06;97462.33;;;17.39;85.08
77881;BME280;67077;50.298;18.996;2023-07-22T00:31:33;97460.67;;;17.41;85.14
77881;BME280;67077;50.298;18.996;2023-07-22T00:34:01;97455.11;;;17.40;84.99
77881;BME280;67077;50.298;18.996;2023-07-22T00:36:29;97449.92;;;17.38;85.08
77881;BME280;67077;50.298;18.996;2023-07-22T00:38:57;97451.35;;;17.38;85.37
77881;BME280;67077;50.298;18.996;2023-07-22T00:41:25;97456.45;;;17.36;85.31
77881;BME280;67077;50.298;18.996;2023-07-22T00:43:53;97460.34;;;17.32;85.31
77881;BME280;67077;50.298;18.996;2023-07-22T00:46:21;97454.98;;;17.29;85.09
77881;BME280;67077;50.298;18.996;2023-07-22T00:48:50;97452.75;;;17.24;85.40
77881;BME280;67077;50.298;18.996;2023-07-22T00:51:17;97450.52;;;17.21;85.52
77881;BME280;67077;50.298;18.996;2023-07-22T00:53:47;97453.27;;;17.14;85.67
77881;BME280;67077;50.298;18.996;2023-07-22T00:56:14;97453.73;;;17.06;86.11
77881;BME280;67077;50.298;18.996;2023-07-22T00:58:42;97453.63;;;16.96;86.39
77881;BME280;67077;50.298;18.996;2023-07-22T01:01:10;97455.08;;;16.88;86.74
77881;BME280;67077;50.298;18.996;2023-07-22T01:03:38;97459.65;;;16.84;86.82
77881;BME280;67077;50.298;18.996;2023-07-22T01:06:06;97458.40;;;16.81;86.75
77881;BME280;67077;50.298;18.996;2023-07-22T01:08:35;97463.16;;;16.76;86.61
77881;BME280;67077;50.298;18.996;2023-07-22T01:11:04;97463.39;;;16.70;86.75
77881;BME280;67077;50.298;18.996;2023-07-22T01:13:33;97459.27;;;16.67;86.91
77881;BME280;67077;50.298;18.996;2023-07-22T01:16:01;97453.90;;;16.65;87.06
77881;BME280;67077;50.298;18.996;2023-07-22T01:18:30;97455.43;;;16.64;87.21
77881;BME280;67077;50.298;18.996;2023-07-22T01:20:59;97452.94;;;16.67;87.06
77881;BME280;67077;50.298;18.996;2023-07-22T01:23:28;97455.14;;;16.71;87.09
77881;BME280;67077;50.298;18.996;2023-07-22T01:25:56;97450.99;;;16.73;86.97
77881;BME280;67077;50.298;18.996;2023-07-22T01:28:24;97447.94;;;16.72;86.96
77881;BME280;67077;50.298;18.996;2023-07-22T01:30:52;97445.16;;;16.70;86.84
77881;BME280;67077;50.298;18.996;2023-07-22T01:33:20;97439.29;;;16.66;86.87
77881;BME280;67077;50.298;18.996;2023-07-22T01:35:50;97446.55;;;16.62;86.73
77881;BME280;67077;50.298;18.996;2023-07-22T01:38:18;97449.16;;;16.59;86.67
77881;BME280;67077;50.298;18.996;2023-07-22T01:40:47;97453.15;;;16.57;86.72
77881;BME280;67077;50.298;18.996;2023-07-22T01:43:16;97458.45;;;16.55;86.45
77881;BME280;67077;50.298;18.996;2023-07-22T01:45:46;97456.59;;;16.54;86.60
77881;BME280;67077;50.298;18.996;2023-07-22T01:48:14;97451.84;;;16.54;86.71
77881;BME280;67077;50.298;18.996;2023-07-22T01:50:43;97458.55;;;16.54;86.77
77881;BME280;67077;50.298;18.996;2023-07-22T01:53:14;97461.70;;;16.53;86.78
77881;BME280;67077;50.298;18.996;2023-07-22T01:55:43;97452.76;;;16.49;86.67
77881;BME280;67077;50.298;18.996;2023-07-22T01:58:12;97446.60;;;16.46;86.65
77881;BME280;67077;50.298;18.996;2023-07-22T02:00:42;97445.73;;;16.43;87.00
77881;BME280;67077;50.298;18.996;2023-07-22T02:03:10;97448.45;;;16.42;87.07
77881;BME280;67077;50.298;18.996;2023-07-22T02:05:46;97445.02;;;16.40;87.09
77881;BME280;67077;50.298;18.996;2023-07-22T02:08:15;97444.51;;;16.37;87.12
77881;BME280;67077;50.298;18.996;2023-07-22T02:10:43;97440.95;;;16.38;87.25
77881;BME280;67077;50.298;18.996;2023-07-22T02:13:17;97446.90;;;16.37;87.27
77881;BME280;67077;50.298;18.996;2023-07-22T02:15:46;97446.58;;;16.37;87.25
77881;BME280;67077;50.298;18.996;2023-07-22T02:18:16;97448.11;;;16.34;87.28
77881;BME280;67077;50.298;18.996;2023-07-22T02:20:47;97448.49;;;16.32;87.47
77881;BME280;67077;50.298;18.996;2023-07-22T02:23:15;97457.00;;;16.30;87.52
77881;BME280;67077;50.298;18.996;2023-07-22T02:25:43;97462.40;;;16.27;87.65
77881;BME280;67077;50.298;18.996;2023-07-22T02:28:12;97467.09;;;16.24;87.70
77881;BME280;67077;50.298;18.996;2023-07-22T02:30:42;97471.60;;;16.21;87.75
77881;BME280;67077;50.298;18.996;2023-07-22T02:33:10;97469.63;;;16.18;87.95
77881;BME280;67077;50.298;18.996;2023-07-22T02:35:38;97465.92;;;16.15;88.07
77881;BME280;67077;50.298;18.996;2023-07-22T02:38:06;97473.18;;;16.12;88.24
77881;BME280;67077;50.298;18.996;2023-07-22T02:40:37;97475.36;;;16.10;88.24
77881;BME280;67077;50.298;18.996;2023-07-22T02:43:05;97476.80;;;16.08;88.39
77881;BME280;67077;50.298;18.996;2023-07-22T02:45:36;97479.03;;;16.05;88.58
77881;BME280;67077;50.298;18.996;2023-07-22T02:48:05;97483.51;;;16.04;88.58
77881;BME280;67077;50.298;18.996;2023-07-22T02:50:34;97481.98;;;16.02;88.72
77881;BME280;67077;50.298;18.996;2023-07-22T02:53:07;97483.34;;;16.00;88.67
77881;BME280;67077;50.298;18.996;2023-07-22T02:55:36;97492.44;;;15.99;88.66
77881;BME280;67077;50.298;18.996;2023-07-22T02:58:06;97493.70;;;16.00;88.87
77881;BME280;67077;50.298;18.996;2023-07-22T03:00:36;97498.61;;;15.99;89.01
77881;BME280;67077;50.298;18.996;2023-07-22T03:03:04;97503.67;;;15.98;89.21
77881;BME280;67077;50.298;18.996;2023-07-22T03:05:33;97507.42;;;15.96;89.25
77881;BME280;67077;50.298;18.996;2023-07-22T03:08:02;97509.67;;;15.96;89.42
77881;BME280;67077;50.298;18.996;2023-07-22T03:10:31;97515.34;;;15.97;89.46
77881;BME280;67077;50.298;18.996;2023-07-22T03:12:59;97521.28;;;15.98;89.67
77881;BME280;67077;50.298;18.996;2023-07-22T03:15:30;97520.67;;;15.98;89.59
77881;BME280;67077;50.298;18.996;2023-07-22T03:17:59;97516.60;;;15.98;89.60
77881;BME280;67077;50.298;18.996;2023-07-22T03:20:28;97526.46;;;15.96;89.57
77881;BME280;67077;50.298;18.996;2023-07-22T03:22:57;97529.67;;;15.96;89.53
77881;BME280;67077;50.298;18.996;2023-07-22T03:25:27;97534.96;;;15.96;89.66
77881;BME280;67077;50.298;18.996;2023-07-22T03:27:56;97538.77;;;15.96;89.86
77881;BME280;67077;50.298;18.996;2023-07-22T03:30:26;97542.27;;;15.94;89.94
77881;BME280;67077;50.298;18.996;2023-07-22T03:32:54;97541.77;;;15.93;89.95
77881;BME280;67077;50.298;18.996;2023-07-22T03:35:23;97539.84;;;15.93;90.07
77881;BME280;67077;50.298;18.996;2023-07-22T03:37:52;97543.83;;;15.93;90.14
77881;BME280;67077;50.298;18.996;2023-07-22T03:40:20;97542.89;;;15.92;90.20
77881;BME280;67077;50.298;18.996;2023-07-22T03:42:57;97551.98;;;15.92;90.36
77881;BME280;67077;50.298;18.996;2023-07-22T03:45:26;97553.84;;;15.90;90.44
77881;BME280;67077;50.298;18.996;2023-07-22T03:47:58;97563.64;;;15.88;90.37
77881;BME280;67077;50.298;18.996;2023-07-22T03:50:28;97561.73;;;15.87;90.65
77881;BME280;67077;50.298;18.996;2023-07-22T03:52:57;97564.55;;;15.84;90.68
77881;BME280;67077;50.298;18.996;2023-07-22T03:55:27;97573.02;;;15.83;90.81
77881;BME280;67077;50.298;18.996;2023-07-22T03:57:56;97578.67;;;15.81;91.04
77881;BME280;67077;50.298;18.996;2023-07-22T04:00:24;97578.72;;;15.80;91.12
77881;BME280;67077;50.298;18.996;2023-07-22T04:02:53;97578.13;;;15.80;91.09
77881;BME280;67077;50.298;18.996;2023-07-22T04:05:21;97581.61;;;15.80;90.99
77881;BME280;67077;50.298;18.996;2023-07-22T04:07:50;97582.38;;;15.80;90.99
77881;BME280;67077;50.298;18.996;2023-07-22T04:10:18;97582.10;;;15.81;90.97
77881;BME280;67077;50.298;18.996;2023-07-22T04:12:48;97580.85;;;15.80;90.90
77881;BME280;67077;50.298;18.996;2023-07-22T04:15:16;97584.61;;;15.80;90.81
77881;BME280;67077;50.298;18.996;2023-07-22T04:17:46;97584.22;;;15.79;90.75
77881;BME280;67077;50.298;18.996;2023-07-22T04:20:16;97582.29;;;15.77;90.81
77881;BME280;67077;50.298;18.996;2023-07-22T04:23:03;97587.17;;;15.79;90.89
77881;BME280;67077;50.298;18.996;2023-07-22T04:25:42;97590.61;;;15.81;90.80
77881;BME280;67077;50.298;18.996;2023-07-22T04:28:12;97589.30;;;15.83;90.89
77881;BME280;67077;50.298;18.996;2023-07-22T04:30:41;97599.39;;;15.87;90.78
77881;BME280;67077;50.298;18.996;2023-07-22T04:33:11;97606.27;;;15.89;90.78
77881;BME280;67077;50.298;18.996;2023-07-22T04:35:40;97612.69;;;15.93;90.74
77881;BME280;67077;50.298;18.996;2023-07-22T04:38:09;97614.17;;;15.96;90.59
77881;BME280;67077;50.298;18.996;2023-07-22T04:40:44;97622.91;;;15.99;90.64
77881;BME280;67077;50.298;18.996;2023-07-22T04:43:13;97621.98;;;16.00;90.43
77881;BME280;67077;50.298;18.996;2023-07-22T04:45:41;97631.42;;;16.01;89.97
77881;BME280;67077;50.298;18.996;2023-07-22T04:48:10;97634.48;;;16.02;89.88
77881;BME280;67077;50.298;18.996;2023-07-22T04:50:41;97640.59;;;16.04;89.63
77881;BME280;67077;50.298;18.996;2023-07-22T04:53:13;97641.52;;;16.05;88.89
77881;BME280;67077;50.298;18.996;2023-07-22T04:55:41;97639.98;;;16.03;88.42
77881;BME280;67077;50.298;18.996;2023-07-22T04:58:12;97636.93;;;16.02;87.66
77881;BME280;67077;50.298;18.996;2023-07-22T05:00:40;97633.45;;;16.02;87.24
77881;BME280;67077;50.298;18.996;2023-07-22T05:03:11;97637.05;;;16.03;86.95
77881;BME280;67077;50.298;18.996;2023-07-22T05:05:42;97642.40;;;16.07;86.99
77881;BME280;67077;50.298;18.996;2023-07-22T05:08:11;97646.56;;;16.09;86.71
77881;BME280;67077;50.298;18.996;2023-07-22T05:10:39;97646.42;;;16.14;86.23
77881;BME280;67077;50.298;18.996;2023-07-22T05:13:07;97646.34;;;16.21;86.12
77881;BME280;67077;50.298;18.996;2023-07-22T05:15:35;97649.88;;;16.27;85.90
77881;BME280;67077;50.298;18.996;2023-07-22T05:18:06;97651.08;;;16.31;85.82
77881;BME280;67077;50.298;18.996;2023-07-22T05:20:52;97650.82;;;16.36;85.34
77881;BME280;67077;50.298;18.996;2023-07-22T05:23:20;97653.58;;;16.39;84.89
77881;BME280;67077;50.298;18.996;2023-07-22T05:25:53;97658.35;;;16.44;84.85
77881;BME280;67077;50.298;18.996;2023-07-22T05:28:21;97661.13;;;16.44;84.18
77881;BME280;67077;50.298;18.996;2023-07-22T05:30:50;97661.02;;;16.42;83.96
77881;BME280;67077;50.298;18.996;2023-07-22T05:33:19;97663.16;;;16.38;83.64
77881;BME280;67077;50.298;18.996;2023-07-22T05:35:47;97665.62;;;16.38;83.34
77881;BME280;67077;50.298;18.996;2023-07-22T05:38:15;97667.95;;;16.43;83.51
77881;BME280;67077;50.298;18.996;2023-07-22T05:40:44;97677.01;;;16.48;83.12
77881;BME280;67077;50.298;18.996;2023-07-22T05:43:12;97680.20;;;16.65;82.62
77881;BME280;67077;50.298;18.996;2023-07-22T05:45:40;97685.09;;;16.90;82.01
77881;BME280;67077;50.298;18.996;2023-07-22T05:48:09;97686.13;;;17.18;81.09
77881;BME280;67077;50.298;18.996;2023-07-22T05:50:37;97689.09;;;17.43;79.89
77881;BME280;67077;50.298;18.996;2023-07-22T05:53:06;97688.94;;;17.62;79.24
77881;BME280;67077;50.298;18.996;2023-07-22T05:55:35;97690.09;;;17.86;78.47
77881;BME280;67077;50.298;18.996;2023-07-22T05:58:03;97694.42;;;18.05;76.40
77881;BME280;67077;50.298;18.996;2023-07-22T06:00:35;97696.67;;;18.10;75.79
77881;BME280;67077;50.298;18.996;2023-07-22T06:03:04;97693.44;;;18.12;75.41
77881;BME280;67077;50.298;18.996;2023-07-22T06:05:33;97700.34;;;18.11;75.37
77881;BME280;67077;50.298;18.996;2023-07-22T06:08:02;97703.45;;;18.11;74.93
77881;BME280;67077;50.298;18.996;2023-07-22T06:10:31;97701.17;;;18.08;74.50
77881;BME280;67077;50.298;18.996;2023-07-22T06:13:04;97698.27;;;18.11;74.83
77881;BME280;67077;50.298;18.996;2023-07-22T06:15:34;97694.81;;;18.12;74.22
77881;BME280;67077;50.298;18.996;2023-07-22T06:18:05;97696.12;;;18.07;73.21
77881;BME280;67077;50.298;18.996;2023-07-22T06:20:37;97698.36;;;18.05;72.84
77881;BME280;67077;50.298;18.996;2023-07-22T06:23:10;97702.09;;;18.02;72.93
77881;BME280;67077;50.298;18.996;2023-07-22T06:25:39;97703.08;;;18.01;72.58
77881;BME280;67077;50.298;18.996;2023-07-22T06:28:08;97703.25;;;18.00;72.67
77881;BME280;67077;50.298;18.996;2023-07-22T06:30:35;97698.89;;;17.96;72.64
77881;BME280;67077;50.298;18.996;2023-07-22T06:33:04;97703.58;;;17.90;72.61
77881;BME280;67077;50.298;18.996;2023-07-22T06:35:32;97698.67;;;17.83;72.09
77881;BME280;67077;50.298;18.996;2023-07-22T06:38:00;97702.19;;;17.81;72.24
77881;BME280;67077;50.298;18.996;2023-07-22T06:40:28;97706.22;;;17.84;72.15
77881;BME280;67077;50.298;18.996;2023-07-22T06:42:56;97708.67;;;17.90;71.73
77881;BME280;67077;50.298;18.996;2023-07-22T06:45:25;97718.20;;;17.94;71.65
77881;BME280;67077;50.298;18.996;2023-07-22T06:47:53;97714.15;;;17.93;71.35
77881;BME280;67077;50.298;18.996;2023-07-22T06:50:22;97716.38;;;18.01;71.67
77881;BME280;67077;50.298;18.996;2023-07-22T06:52:50;97717.40;;;18.11;70.76
77881;BME280;67077;50.298;18.996;2023-07-22T06:55:18;97714.80;;;18.25;70.78
77881;BME280;67077;50.298;18.996;2023-07-22T06:57:48;97714.52;;;18.26;69.46
77881;BME280;67077;50.298;18.996;2023-07-22T07:00:17;97714.58;;;18.22;68.57
77881;BME280;67077;50.298;18.996;2023-07-22T07:02:45;97721.64;;;18.17;68.65
77881;BME280;67077;50.298;18.996;2023-07-22T07:05:14;97718.73;;;18.10;69.35
77881;BME280;67077;50.298;18.996;2023-07-22T07:07:44;97719.70;;;18.13;70.03
77881;BME280;67077;50.298;18.996;2023-07-22T07:10:12;97727.88;;;18.24;69.91
77881;BME280;67077;50.298;18.996;2023-07-22T07:12:43;97734.20;;;18.34;70.02
77881;BME280;67077;50.298;18.996;2023-07-22T07:15:11;97732.31;;;18.44;68.88
77881;BME280;67077;50.298;18.996;2023-07-22T07:17:42;97739.23;;;18.49;67.47
77881;BME280;67077;50.298;18.996;2023-07-22T07:20:13;97734.46;;;18.52;66.83
77881;BME280;67077;50.298;18.996;2023-07-22T07:22:44;97738.46;;;18.56;66.08
77881;BME280;67077;50.298;18.996;2023-07-22T07:25:12;97736.52;;;18.60;65.50
77881;BME280;67077;50.298;18.996;2023-07-22T07:27:43;97736.56;;;18.62;65.37
77881;BME280;67077;50.298;18.996;2023-07-22T07:30:16;97740.13;;;18.62;65.18
77881;BME280;67077;50.298;18.996;2023-07-22T07:32:47;97741.17;;;18.66;65.09
77881;BME280;67077;50.298;18.996;2023-07-22T07:35:20;97736.46;;;18.71;65.44
77881;BME280;67077;50.298;18.996;2023-07-22T07:38:00;97731.70;;;18.81;64.27
77881;BME280;67077;50.298;18.996;2023-07-22T07:40:34;97740.36;;;18.91;63.31
77881;BME280;67077;50.298;18.996;2023-07-22T07:43:12;97741.70;;;18.98;62.91
77881;BME280;67077;50.298;18.996;2023-07-22T07:46:23;97747.80;;;19.06;62.56
77881;BME280;67077;50.298;18.996;2023-07-22T07:48:57;97746.84;;;19.09;62.62
77881;BME280;67077;50.298;18.996;2023-07-22T07:51:30;97751.43;;;19.12;62.83
77881;BME280;67077;50.298;18.996;2023-07-22T07:54:07;97750.35;;;19.21;62.88
77881;BME280;67077;50.298;18.996;2023-07-22T07:56:37;97754.66;;;19.33;62.90
77881;BME280;67077;50.298;18.996;2023-07-22T07:59:11;97752.11;;;19.45;62.37
77881;BME280;67077;50.298;18.996;2023-07-22T08:01:48;97753.98;;;19.55;61.81
77881;BME280;67077;50.298;18.996;2023-07-22T08:04:17;97754.27;;;19.62;61.50
77881;BME280;67077;50.298;18.996;2023-07-22T08:06:46;97761.34;;;19.65;60.87
77881;BME280;67077;50.298;18.996;2023-07-22T08:09:16;97759.55;;;19.67;60.37
77881;BME280;67077;50.298;18.996;2023-07-22T08:11:48;97766.89;;;19.74;59.54
77881;BME280;67077;50.298;18.996;2023-07-22T08:14:16;97769.18;;;19.80;59.76
77881;BME280;67077;50.298;18.996;2023-07-22T08:16:46;97763.35;;;19.81;59.39
77881;BME280;67077;50.298;18.996;2023-07-22T08:19:14;97767.05;;;19.84;59.29
77881;BME280;67077;50.298;18.996;2023-07-22T08:21:43;97769.77;;;19.86;58.91
77881;BME280;67077;50.298;18.996;2023-07-22T08:24:11;97780.59;;;19.85;58.88
77881;BME280;67077;50.298;18.996;2023-07-22T08:26:42;97779.98;;;19.81;58.28
77881;BME280;67077;50.298;18.996;2023-07-22T08:29:10;97786.92;;;19.88;58.75
77881;BME280;67077;50.298;18.996;2023-07-22T08:31:38;97790.92;;;20.02;56.82
77881;BME280;67077;50.298;18.996;2023-07-22T08:34:07;97785.89;;;20.00;56.17
77881;BME280;67077;50.298;18.996;2023-07-22T08:36:35;97798.80;;;19.92;56.39
77881;BME280;67077;50.298;18.996;2023-07-22T08:39:05;97808.77;;;19.81;56.05
77881;BME280;67077;50.298;18.996;2023-07-22T08:41:34;97807.59;;;19.68;55.52
77881;BME280;67077;50.298;18.996;2023-07-22T08:44:06;97808.40;;;19.60;56.04
77881;BME280;67077;50.298;18.996;2023-07-22T08:46:41;97803.65;;;19.67;56.80
77881;BME280;67077;50.298;18.996;2023-07-22T08:49:12;97799.38;;;19.88;55.96
77881;BME280;67077;50.298;18.996;2023-07-22T08:51:45;97792.66;;;20.05;55.74
77881;BME280;67077;50.298;18.996;2023-07-22T08:54:19;97793.52;;;20.26;55.84
77881;BME280;67077;50.298;18.996;2023-07-22T08:56:47;97797.02;;;20.52;55.85
77881;BME280;67077;50.298;18.996;2023-07-22T08:59:18;97796.23;;;20.79;55.70
77881;BME280;67077;50.298;18.996;2023-07-22T09:01:48;97798.83;;;21.07;54.48
77881;BME280;67077;50.298;18.996;2023-07-22T09:04:17;97806.94;;;21.21;54.03
77881;BME280;67077;50.298;18.996;2023-07-22T09:06:48;97806.46;;;21.30;53.75
77881;BME280;67077;50.298;18.996;2023-07-22T09:09:17;97803.64;;;21.36;53.42
77881;BME280;67077;50.298;18.996;2023-07-22T09:11:48;97808.95;;;21.41;53.25
77881;BME280;67077;50.298;18.996;2023-07-22T09:14:19;97814.38;;;21.38;52.95
77881;BME280;67077;50.298;18.996;2023-07-22T09:16:50;97806.88;;;21.27;52.95
77881;BME280;67077;50.298;18.996;2023-07-22T09:19:20;97813.51;;;21.19;53.45
77881;BME280;67077;50.298;18.996;2023-07-22T09:21:49;97814.17;;;21.10;53.34
77881;BME280;67077;50.298;18.996;2023-07-22T09:24:23;97818.15;;;21.00;52.05
77881;BME280;67077;50.298;18.996;2023-07-22T09:26:51;97817.30;;;21.06;52.76
77881;BME280;67077;50.298;18.996;2023-07-22T09:29:38;97818.33;;;21.22;52.75
77881;BME280;67077;50.298;18.996;2023-07-22T09:32:09;97816.96;;;21.38;51.41
77881;BME280;67077;50.298;18.996;2023-07-22T09:34:37;97813.77;;;21.48;50.78
77881;BME280;67077;50.298;18.996;2023-07-22T09:37:05;97812.03;;;21.49;51.06
77881;BME280;67077;50.298;18.996;2023-07-22T09:39:34;97810.02;;;21.60;50.63
77881;BME280;67077;50.298;18.996;2023-07-22T09:42:03;97811.52;;;21.69;49.93
77881;BME280;67077;50.298;18.996;2023-07-22T09:44:32;97806.83;;;21.71;50.10
77881;BME280;67077;50.298;18.996;2023-07-22T09:47:08;97808.98;;;21.75;50.20
77881;BME280;67077;50.298;18.996;2023-07-22T09:49:40;97808.06;;;21.80;49.56
77881;BME280;67077;50.298;18.996;2023-07-22T09:52:10;97809.23;;;21.85;49.83
77881;BME280;67077;50.298;18.996;2023-07-22T09:55:02;97809.25;;;21.89;49.14
77881;BME280;67077;50.298;18.996;2023-07-22T09:57:35;97806.16;;;21.78;50.02
77881;BME280;67077;50.298;18.996;2023-07-22T10:00:04;97807.68;;;21.87;49.54
77881;BME280;67077;50.298;18.996;2023-07-22T10:02:32;97805.27;;;22.04;48.28
77881;BME280;67077;50.298;18.996;2023-07-22T10:05:03;97804.30;;;22.15;47.35
77881;BME280;67077;50.298;18.996;2023-07-22T10:07:33;97797.80;;;22.24;47.93
77881;BME280;67077;50.298;18.996;2023-07-22T10:10:03;97799.33;;;22.44;48.17
77881;BME280;67077;50.298;18.996;2023-07-22T10:12:31;97807.43;;;22.70;47.08
77881;BME280;67077;50.298;18.996;2023-07-22T10:15:00;97805.61;;;22.92;46.81
77881;BME280;67077;50.298;18.996;2023-07-22T10:17:31;97810.23;;;23.06;45.84
77881;BME280;67077;50.298;18.996;2023-07-22T10:19:59;97814.84;;;23.05;45.15
77881;BME280;67077;50.298;18.996;2023-07-22T10:22:28;97812.64;;;23.02;45.81
77881;BME280;67077;50.298;18.996;2023-07-22T10:24:57;97812.41;;;22.78;45.60
77881;BME280;67077;50.298;18.996;2023-07-22T10:27:26;97813.82;;;22.43;46.16
77881;BME280;67077;50.298;18.996;2023-07-22T10:29:56;97824.95;;;22.18;46.41
77881;BME280;67077;50.298;18.996;2023-07-22T10:32:24;97826.73;;;22.04;46.70
77881;BME280;67077;50.298;18.996;2023-07-22T10:34:52;97825.09;;;22.03;46.29
77881;BME280;67077;50.298;18.996;2023-07-22T10:37:20;97824.10;;;22.05;45.99
77881;BME280;67077;50.298;18.996;2023-07-22T10:39:51;97818.95;;;22.14;46.79
77881;BME280;67077;50.298;18.996;2023-07-22T10:42:26;97817.61;;;22.25;46.84
77881;BME280;67077;50.298;18.996;2023-07-22T10:44:54;97818.42;;;22.35;46.26
77881;BME280;67077;50.298;18.996;2023-07-22T10:47:35;97814.20;;;22.46;45.52
77881;BME280;67077;50.298;18.996;2023-07-22T10:50:06;97819.35;;;22.57;44.32
77881;BME280;67077;50.298;18.996;2023-07-22T10:52:40;97821.58;;;22.64;45.01
77881;BME280;67077;50.298;18.996;2023-07-22T10:55:19;97823.13;;;22.77;45.93
77881;BME280;67077;50.298;18.996;2023-07-22T10:57:51;97821.77;;;22.94;45.09
77881;BME280;67077;50.298;18.996;2023-07-22T11:00:21;97820.82;;;23.01;45.12
77881;BME280;67077;50.298;18.996;2023-07-22T11:03:22;97821.42;;;22.99;43.32
77881;BME280;67077;50.298;18.996;2023-07-22T11:05:53;97819.98;;;22.97;43.68
77881;BME280;67077;50.298;18.996;2023-07-22T11:08:43;97818.35;;;22.94;43.47
77881;BME280;67077;50.298;18.996;2023-07-22T11:11:11;97821.69;;;23.04;44.27
77881;BME280;67077;50.298;18.996;2023-07-22T11:13:39;97821.67;;;23.18;43.05
77881;BME280;67077;50.298;18.996;2023-07-22T11:16:11;97829.05;;;23.19;42.43
77881;BME280;67077;50.298;18.996;2023-07-22T11:18:41;97825.67;;;23.19;42.40
77881;BME280;67077;50.298;18.996;2023-07-22T11:21:10;97822.25;;;23.27;43.46
77881;BME280;67077;50.298;18.996;2023-07-22T11:23:38;97830.21;;;23.34;41.71
77881;BME280;67077;50.298;18.996;2023-07-22T11:26:06;97829.52;;;23.17;40.96
77881;BME280;67077;50.298;18.996;2023-07-22T11:28:34;97824.18;;;22.98;41.11
77881;BME280;67077;50.298;18.996;2023-07-22T11:31:02;97825.77;;;22.83;41.98
77881;BME280;67077;50.298;18.996;2023-07-22T11:33:41;97823.06;;;22.88;42.83
77881;BME280;67077;50.298;18.996;2023-07-22T11:36:12;97824.41;;;23.00;43.27
77881;BME280;67077;50.298;18.996;2023-07-22T11:38:40;97825.92;;;23.13;42.81
77881;BME280;67077;50.298;18.996;2023-07-22T11:41:13;97822.39;;;23.08;41.14
77881;BME280;67077;50.298;18.996;2023-07-22T11:44:02;97826.58;;;23.05;41.83
77881;BME280;67077;50.298;18.996;2023-07-22T11:46:34;97827.43;;;23.14;41.80
77881;BME280;67077;50.298;18.996;2023-07-22T11:49:02;97829.73;;;23.20;41.32
77881;BME280;67077;50.298;18.996;2023-07-22T11:51:31;97829.73;;;23.12;41.00
77881;BME280;67077;50.298;18.996;2023-07-22T11:54:01;97828.37;;;22.98;41.06
77881;BME280;67077;50.298;18.996;2023-07-22T11:56:29;97823.13;;;22.80;41.53
77881;BME280;67077;50.298;18.996;2023-07-22T11:58:57;97820.63;;;22.69;42.08
77881;BME280;67077;50.298;18.996;2023-07-22T12:01:32;97822.56;;;22.77;41.82
77881;BME280;67077;50.298;18.996;2023-07-22T12:04:00;97819.70;;;22.87;42.12
77881;BME280;67077;50.298;18.996;2023-07-22T12:06:32;97821.27;;;23.03;41.28
77881;BME280;67077;50.298;18.996;2023-07-22T12:09:07;97816.27;;;23.07;40.75
77881;BME280;67077;50.298;18.996;2023-07-22T12:11:42;97812.70;;;23.11;41.27
77881;BME280;67077;50.298;18.996;2023-07-22T12:14:53;97811.59;;;23.41;41.92
77881;BME280;67077;50.298;18.996;2023-07-22T12:17:59;97808.74;;;23.66;40.84
77881;BME280;67077;50.298;18.996;2023-07-22T12:20:30;97808.27;;;23.79;41.07
77881;BME280;67077;50.298;18.996;2023-07-22T12:22:58;97808.23;;;23.85;40.80
77881;BME280;67077;50.298;18.996;2023-07-22T12:25:27;97806.14;;;23.95;41.40
77881;BME280;67077;50.298;18.996;2023-07-22T12:27:55;97803.67;;;24.05;40.84
77881;BME280;67077;50.298;18.996;2023-07-22T12:30:23;97801.85;;;24.14;40.90
77881;BME280;67077;50.298;18.996;2023-07-22T12:32:52;97794.80;;;24.27;40.81
77881;BME280;67077;50.298;18.996;2023-07-22T12:35:20;97792.74;;;24.54;41.33
77881;BME280;67077;50.298;18.996;2023-07-22T12:37:48;97791.88;;;24.76;40.22
77881;BME280;67077;50.298;18.996;2023-07-22T12:40:16;97787.39;;;24.98;40.09
77881;BME280;67077;50.298;18.996;2023-07-22T12:42:44;97788.60;;;25.16;40.26
77881;BME280;67077;50.298;18.996;2023-07-22T12:45:13;97789.89;;;25.26;39.63
77881;BME280;67077;50.298;18.996;2023-07-22T12:47:41;97792.23;;;25.26;38.83
77881;BME280;67077;50.298;18.996;2023-07-22T12:50:09;97790.14;;;25.28;39.26
77881;BME280;67077;50.298;18.996;2023-07-22T12:52:37;97784.88;;;25.30;38.83
77881;BME280;67077;50.298;18.996;2023-07-22T12:55:06;97778.40;;;25.30;38.84
77881;BME280;67077;50.298;18.996;2023-07-22T12:57:34;97774.78;;;25.23;38.26
77881;BME280;67077;50.298;18.996;2023-07-22T13:00:02;97777.46;;;25.13;38.49
77881;BME280;67077;50.298;18.996;2023-07-22T13:02:33;97780.88;;;25.04;38.25
77881;BME280;67077;50.298;18.996;2023-07-22T13:05:01;97781.66;;;24.75;36.70
77881;BME280;67077;50.298;18.996;2023-07-22T13:07:30;97783.88;;;24.48;37.25